createdAt,value
2022-08-20T00:00:38.460Z,9.20
2022-08-20T00:04:52.206Z,8.40
2022-08-20T00:08:54.719Z,8.30
2022-08-20T00:12:56.811Z,9.90
2022-08-20T00:17:20.150Z,7.93
2022-08-20T00:21:57.978Z,9.35
2022-08-20T00:26:26.283Z,7.25
2022-08-20T00:30:42.331Z,9.25
2022-08-20T00:35:19.450Z,8.40
2022-08-20T00:40:22.018Z,13.52
2022-08-20T00:44:54.319Z,7.93
2022-08-20T00:49:50.888Z,7.85
2022-08-20T00:54:40.304Z,7.03
2022-08-20T00:59:01.531Z,6.82
2022-08-20T01:13:23.710Z,7.10
2022-08-20T01:23:29.511Z,8.63
2022-08-20T01:43:04.808Z,8.20
2022-08-20T01:47:46.418Z,8.87
2022-08-20T01:53:09.005Z,7.90
2022-08-20T02:03:45.003Z,7.07
2022-08-20T02:14:35.937Z,8.27
2022-08-20T02:25:29.876Z,6.20
2022-08-20T02:36:33.537Z,7.50
2022-08-20T02:45:21.543Z,5.97
2022-08-20T02:46:57.669Z,7.22
2022-08-20T02:52:23.741Z,7.85
2022-08-20T03:03:04.323Z,8.23
2022-08-20T03:12:55.837Z,7.75
2022-08-20T03:23:03.392Z,6.10
2022-08-20T04:27:08.195Z,6.28
2022-08-20T04:32:07.093Z,6.25
2022-08-20T04:42:03.783Z,7.30
2022-08-20T04:46:56.124Z,7.00
2022-08-20T05:02:38.217Z,5.18
2022-08-20T05:07:09.734Z,6.13
2022-08-20T05:26:50.982Z,6.72
2022-08-20T05:30:53.413Z,5.88
2022-08-20T05:34:55.026Z,6.07
2022-08-20T05:38:56.840Z,6.85
2022-08-20T05:42:58.406Z,7.13
2022-08-20T05:46:59.998Z,5.15
2022-08-20T05:51:05.788Z,6.80
2022-08-20T05:55:09.953Z,5.88
2022-08-20T05:59:14.035Z,5.05
2022-08-20T06:03:34.525Z,4.45
2022-08-20T06:07:38.670Z,4.65
2022-08-20T06:11:40.231Z,3.67
2022-08-20T06:15:42.114Z,6.40
2022-08-20T06:19:45.717Z,4.00
2022-08-20T06:23:57.670Z,4.15
2022-08-20T06:28:01.888Z,5.22
2022-08-20T06:32:03.717Z,5.95
2022-08-20T06:36:05.521Z,5.27
2022-08-20T06:40:11.063Z,5.47
2022-08-20T06:44:13.504Z,3.67
2022-08-20T06:48:15.544Z,3.90
2022-08-20T06:52:17.481Z,6.45
2022-08-20T06:56:19.040Z,9.03
2022-08-20T07:00:20.811Z,10.02
2022-08-20T07:04:26.754Z,13.43
2022-08-20T07:08:28.310Z,12.90
2022-08-20T07:12:29.879Z,14.88
2022-08-20T07:16:32.184Z,17.05
2022-08-20T07:20:36.005Z,18.70
2022-08-20T07:24:41.177Z,18.55
2022-08-20T07:28:43.666Z,19.08
2022-08-20T07:32:46.336Z,20.23
2022-08-20T07:36:50.573Z,19.05
2022-08-20T07:40:55.843Z,17.42
2022-08-20T07:44:57.856Z,18.77
2022-08-20T07:48:59.768Z,16.85
2022-08-20T07:53:01.550Z,16.67
2022-08-20T07:57:03.965Z,16.40
2022-08-20T08:01:07.053Z,19.45
2022-08-20T08:05:09.708Z,18.65
2022-08-20T08:09:14.201Z,16.02
2022-08-20T08:13:15.944Z,16.33
2022-08-20T08:17:19.132Z,14.98
2022-08-20T08:21:22.454Z,15.18
2022-08-20T08:25:24.079Z,13.70
2022-08-20T08:29:26.235Z,13.15
2022-08-20T08:33:32.325Z,15.15
2022-08-20T08:37:34.371Z,14.82
2022-08-20T08:41:47.314Z,9.85
2022-08-20T08:46:10.383Z,10.63
2022-08-20T08:50:38.541Z,13.15
2022-08-20T08:54:49.039Z,11.20
2022-08-20T08:58:50.625Z,9.50
2022-08-20T09:03:01.477Z,9.25
2022-08-20T09:07:06.913Z,8.45
2022-08-20T09:11:09.056Z,7.15
2022-08-20T09:15:11.004Z,8.02
2022-08-20T09:19:13.007Z,7.60
2022-08-20T09:23:14.576Z,8.20
2022-08-20T09:27:16.299Z,7.03
2022-08-20T09:31:18.253Z,6.00
2022-08-20T09:35:19.931Z,5.63
2022-08-20T09:39:21.473Z,5.50
2022-08-20T09:43:23.046Z,4.97
2022-08-20T09:47:25.459Z,4.33
2022-08-20T09:55:39.916Z,6.15
2022-08-20T09:59:41.807Z,4.38
2022-08-20T10:03:45.318Z,3.92
2022-08-20T10:07:46.891Z,4.20
2022-08-20T10:11:48.523Z,4.00
2022-08-20T10:15:50.070Z,4.07
2022-08-20T10:19:51.678Z,3.20
2022-08-20T10:23:53.299Z,2.83
2022-08-20T10:27:55.757Z,3.60
2022-08-20T10:31:57.936Z,3.13
2022-08-20T10:36:09.807Z,2.65
2022-08-20T10:40:12.389Z,3.33
2022-08-20T10:44:14.055Z,2.72
2022-08-20T10:48:20.833Z,2.40
2022-08-20T10:52:24.087Z,2.65
2022-08-20T10:56:26.107Z,1.88
2022-08-20T11:00:27.804Z,2.35
2022-08-20T11:04:29.343Z,1.90
2022-08-20T11:08:33.435Z,1.53
2022-08-20T11:12:36.408Z,2.05
2022-08-20T11:16:37.995Z,2.97
2022-08-20T11:20:40.023Z,1.67
2022-08-20T11:24:41.919Z,1.80
2022-08-20T11:28:47.622Z,1.30
2022-08-20T11:32:49.375Z,1.60
2022-08-20T11:36:52.269Z,1.15
2022-08-20T11:40:54.026Z,0.93
2022-08-20T11:44:55.634Z,1.48
2022-08-20T11:48:57.269Z,0.73
2022-08-20T11:52:59.238Z,0.70
2022-08-20T11:57:03.178Z,0.90
2022-08-20T12:01:04.867Z,1.42
2022-08-20T12:09:08.354Z,1.17
2022-08-20T12:13:09.913Z,8.13
2022-08-20T12:17:14.975Z,1.17
2022-08-20T12:21:16.962Z,0.65
2022-08-20T12:25:18.732Z,1.75
2022-08-20T12:29:20.273Z,1.75
2022-08-20T12:33:21.830Z,0.63
2022-08-20T12:37:26.116Z,1.30
2022-08-20T12:41:27.665Z,1.48
2022-08-20T12:53:32.895Z,0.50
2022-08-20T12:57:46.229Z,2.67
2022-08-20T13:01:47.850Z,1.75
2022-08-20T13:05:50.083Z,2.15
2022-08-20T13:09:51.710Z,1.33
2022-08-20T13:13:53.434Z,2.78
2022-08-20T13:18:03.934Z,2.15
2022-08-20T13:22:05.817Z,0.70
2022-08-20T13:26:07.467Z,2.28
2022-08-20T13:30:11.601Z,0.63
2022-08-20T13:34:13.251Z,0.47
2022-08-20T13:38:14.812Z,1.13
2022-08-20T13:42:17.410Z,1.67
2022-08-20T13:46:18.997Z,2.30
2022-08-20T13:50:24.090Z,2.35
2022-08-20T13:54:30.150Z,1.70
2022-08-20T13:58:32.082Z,1.85
2022-08-20T14:02:33.787Z,1.33
2022-08-20T14:06:35.509Z,1.98
2022-08-20T14:10:38.534Z,3.67
2022-08-20T14:14:41.569Z,2.15
2022-08-20T14:18:43.123Z,2.40
2022-08-20T14:22:50.503Z,2.28
2022-08-20T14:26:52.135Z,3.10
2022-08-20T14:30:53.890Z,3.53
2022-08-20T14:34:57.180Z,2.90
2022-08-20T14:38:58.741Z,3.35
2022-08-20T14:43:00.590Z,3.75
2022-08-20T14:51:14.009Z,2.47
2022-08-20T14:55:19.554Z,4.50
2022-08-20T14:59:21.095Z,4.50
2022-08-20T15:03:25.594Z,2.13
2022-08-20T15:07:31.138Z,2.95
2022-08-20T15:11:34.695Z,3.35
2022-08-20T15:15:36.869Z,6.40
2022-08-20T15:19:38.495Z,3.95
2022-08-20T15:23:40.110Z,5.38
2022-08-20T15:27:42.047Z,3.03
2022-08-20T15:35:48.953Z,3.55
2022-08-20T15:39:51.391Z,3.10
2022-08-20T15:43:52.971Z,3.65
2022-08-20T15:48:02.401Z,5.95
2022-08-20T15:52:04.104Z,3.95
2022-08-20T15:56:41.315Z,9.80
2022-08-20T16:01:24.546Z,3.97
2022-08-20T16:06:00.959Z,6.25
2022-08-20T16:10:26.616Z,4.18
2022-08-20T16:14:34.424Z,6.55
2022-08-20T16:18:37.718Z,4.75
2022-08-20T16:22:43.350Z,4.47
2022-08-20T16:27:22.371Z,5.13
2022-08-20T16:31:30.541Z,3.65
2022-08-20T16:35:41.341Z,4.43
2022-08-20T16:39:54.426Z,3.90
2022-08-20T16:44:02.323Z,5.05
2022-08-20T16:48:07.280Z,2.88
2022-08-20T16:52:08.846Z,3.05
2022-08-20T16:56:10.658Z,3.10
2022-08-20T17:00:35.951Z,3.72
2022-08-20T17:04:59.991Z,3.08
2022-08-20T17:09:07.329Z,4.57
2022-08-20T17:13:23.839Z,3.97
2022-08-20T17:17:33.878Z,5.28
2022-08-20T17:21:38.327Z,3.08
2022-08-20T17:25:40.064Z,3.85
2022-08-20T17:29:57.021Z,2.85
2022-08-20T17:33:58.595Z,7.00
2022-08-20T17:38:02.037Z,3.20
2022-08-20T17:42:10.107Z,4.88
2022-08-20T17:46:19.025Z,4.28
2022-08-20T17:50:29.978Z,5.43
2022-08-20T17:54:37.278Z,5.88
2022-08-20T17:58:54.939Z,5.82
2022-08-20T18:03:00.938Z,10.98
2022-08-20T18:07:13.196Z,5.70
2022-08-20T18:11:27.311Z,4.30
2022-08-20T18:15:37.383Z,3.45
2022-08-20T18:20:13.201Z,4.93
2022-08-20T18:24:56.487Z,4.88
2022-08-20T18:29:13.665Z,3.35
2022-08-20T18:33:27.267Z,5.43
2022-08-20T18:37:31.131Z,3.65
2022-08-20T18:41:39.511Z,6.15
2022-08-20T18:45:41.863Z,6.20
2022-08-20T18:49:43.419Z,4.65
2022-08-20T18:53:51.853Z,5.55
2022-08-20T18:58:06.667Z,8.60
2022-08-20T19:02:22.070Z,5.60
2022-08-20T19:06:28.085Z,4.25
2022-08-20T19:10:52.352Z,4.90
2022-08-20T19:15:01.414Z,5.45
2022-08-20T19:19:03.739Z,5.93
2022-08-20T19:23:14.399Z,5.65
2022-08-20T19:27:18.018Z,6.70
2022-08-20T19:31:27.172Z,6.50
2022-08-20T19:35:29.115Z,8.70
2022-08-20T19:39:31.262Z,5.60
2022-08-20T19:43:42.120Z,6.30
2022-08-20T19:47:57.188Z,5.82
2022-08-20T19:52:35.608Z,6.45
2022-08-20T19:56:41.399Z,5.47
2022-08-20T20:00:49.688Z,5.65
2022-08-20T20:04:55.618Z,7.80
2022-08-20T20:09:03.767Z,7.38
2022-08-20T20:13:11.832Z,5.25
2022-08-20T20:17:23.015Z,5.93
2022-08-20T20:21:36.180Z,8.52
2022-08-20T20:29:42.499Z,5.90
2022-08-20T20:33:53.014Z,8.27
2022-08-20T20:38:08.888Z,7.13
2022-08-20T20:42:24.383Z,8.57
2022-08-20T20:46:28.883Z,6.35
2022-08-20T20:50:34.630Z,6.03
2022-08-20T20:54:42.199Z,5.80
2022-08-20T20:58:54.379Z,7.15
2022-08-20T21:02:57.772Z,11.52
2022-08-20T21:07:10.929Z,9.35
2022-08-20T21:11:12.485Z,5.97
2022-08-20T21:15:14.299Z,8.48
2022-08-20T21:19:16.224Z,7.55
2022-08-20T21:23:18.140Z,9.60
2022-08-20T21:27:24.182Z,8.20
2022-08-20T21:31:31.843Z,8.73
2022-08-20T21:35:33.901Z,7.15
2022-08-20T21:39:35.507Z,7.23
2022-08-20T21:43:37.182Z,10.23
2022-08-20T21:47:38.765Z,9.07
2022-08-20T21:51:40.323Z,6.93
2022-08-20T21:55:41.967Z,8.00
2022-08-20T21:59:43.557Z,8.07
2022-08-20T22:03:45.158Z,11.50
2022-08-20T22:07:51.147Z,11.13
2022-08-20T22:11:55.116Z,8.40
2022-08-20T22:16:00.099Z,9.30
2022-08-20T22:20:02.384Z,8.77
2022-08-20T22:24:07.409Z,6.30
2022-08-20T22:28:09.084Z,9.40
2022-08-20T22:32:11.880Z,10.70
2022-08-20T22:40:14.997Z,8.98
2022-08-20T22:44:17.485Z,7.60
2022-08-20T22:48:20.857Z,7.03
2022-08-20T22:52:23.611Z,7.22
2022-08-20T22:56:29.924Z,10.05
2022-08-20T23:00:32.602Z,6.28
2022-08-20T23:04:36.327Z,9.05
2022-08-20T23:08:38.711Z,8.55
2022-08-20T23:12:40.294Z,7.07
2022-08-20T23:16:45.331Z,8.27
2022-08-20T23:20:52.167Z,10.05
2022-08-20T23:24:57.270Z,11.13
2022-08-20T23:29:01.544Z,7.55
2022-08-20T23:33:03.506Z,8.45
2022-08-20T23:37:06.719Z,8.03
2022-08-20T23:41:08.302Z,9.73
2022-08-20T23:45:09.991Z,6.88
2022-08-20T23:49:11.579Z,8.43
2022-08-20T23:53:13.210Z,7.68
2022-08-20T23:57:15.779Z,10.98
